<?xml version="1.0" encoding="UTF-8" ?>
<gpx version="1.1" xmlns:xsi="http://www.w3.org/2001/XMLSchema-instance" 
    xmlns="http://www.topografix.com/GPX/1/1" 
    xsi:schemaLocation="http://www.topografix.com/GPX/1/1 http://www.topografix.com/GPX/1/1/gpx.xsd" 
    creator="Openrunner - https://www.openrunner.com" >	<trk>
						<name>11223287-Balade Verte - Circuit Château de Chevreaux - Cx1</name>
						<trkseg>
					<trkpt lat="46.494110" lon="5.387720">
						<ele>280</ele>
						<time>2020-04-22T09:57:51Z</time>
					</trkpt>
					<trkpt lat="46.494480" lon="5.387800">
						<ele>280</ele>
						<time>2020-04-22T09:58:41Z</time>
					</trkpt>
					<trkpt lat="46.494430" lon="5.388640">
						<ele>283</ele>
						<time>2020-04-22T09:59:58Z</time>
					</trkpt>
					<trkpt lat="46.494070" lon="5.388670">
						<ele>284</ele>
						<time>2020-04-22T10:00:46Z</time>
					</trkpt>
					<trkpt lat="46.493710" lon="5.388640">
						<ele>284</ele>
						<time>2020-04-22T10:01:35Z</time>
					</trkpt>
					<trkpt lat="46.493600" lon="5.389190">
						<ele>285</ele>
						<time>2020-04-22T10:02:27Z</time>
					</trkpt>
					<trkpt lat="46.493390" lon="5.389340">
						<ele>286</ele>
						<time>2020-04-22T10:02:58Z</time>
					</trkpt>
					<trkpt lat="46.493420" lon="5.389950">
						<ele>288</ele>
						<time>2020-04-22T10:03:55Z</time>
					</trkpt>
					<trkpt lat="46.493570" lon="5.390260">
						<ele>288</ele>
						<time>2020-04-22T10:04:29Z</time>
					</trkpt>
					<trkpt lat="46.493060" lon="5.390370">
						<ele>288</ele>
						<time>2020-04-22T10:05:38Z</time>
					</trkpt>
					<trkpt lat="46.492960" lon="5.390030">
						<ele>287</ele>
						<time>2020-04-22T10:06:12Z</time>
					</trkpt>
					<trkpt lat="46.492730" lon="5.389570">
						<ele>284</ele>
						<time>2020-04-22T10:07:04Z</time>
					</trkpt>
					<trkpt lat="46.492120" lon="5.388630">
						<ele>281</ele>
						<time>2020-04-22T10:09:03Z</time>
					</trkpt>
					<trkpt lat="46.491990" lon="5.388350">
						<ele>280</ele>
						<time>2020-04-22T10:09:34Z</time>
					</trkpt>
					<trkpt lat="46.491620" lon="5.388530">
						<ele>281</ele>
						<time>2020-04-22T10:10:26Z</time>
					</trkpt>
					<trkpt lat="46.490690" lon="5.388360">
						<ele>279</ele>
						<time>2020-04-22T10:12:31Z</time>
					</trkpt>
					<trkpt lat="46.490650" lon="5.387880">
						<ele>277</ele>
						<time>2020-04-22T10:13:16Z</time>
					</trkpt>
					<trkpt lat="46.490490" lon="5.387890">
						<ele>278</ele>
						<time>2020-04-22T10:13:37Z</time>
					</trkpt>
					<trkpt lat="46.489620" lon="5.387820">
						<ele>282</ele>
						<time>2020-04-22T10:15:33Z</time>
					</trkpt>
					<trkpt lat="46.489410" lon="5.387560">
						<ele>282</ele>
						<time>2020-04-22T10:16:10Z</time>
					</trkpt>
					<trkpt lat="46.488900" lon="5.387540">
						<ele>290</ele>
						<time>2020-04-22T10:17:18Z</time>
					</trkpt>
					<trkpt lat="46.488590" lon="5.387310">
						<ele>296</ele>
						<time>2020-04-22T10:18:05Z</time>
					</trkpt>
					<trkpt lat="46.488300" lon="5.387590">
						<ele>305</ele>
						<time>2020-04-22T10:18:51Z</time>
					</trkpt>
					<trkpt lat="46.488010" lon="5.387810">
						<ele>317</ele>
						<time>2020-04-22T10:19:35Z</time>
					</trkpt>
					<trkpt lat="46.487400" lon="5.389040">
						<ele>344</ele>
						<time>2020-04-22T10:21:54Z</time>
					</trkpt>
					<trkpt lat="46.487250" lon="5.389270">
						<ele>349</ele>
						<time>2020-04-22T10:22:23Z</time>
					</trkpt>
					<trkpt lat="46.487070" lon="5.389510">
						<ele>356</ele>
						<time>2020-04-22T10:22:56Z</time>
					</trkpt>
					<trkpt lat="46.487090" lon="5.389840">
						<ele>362</ele>
						<time>2020-04-22T10:23:26Z</time>
					</trkpt>
					<trkpt lat="46.486810" lon="5.390060">
						<ele>369</ele>
						<time>2020-04-22T10:24:09Z</time>
					</trkpt>
					<trkpt lat="46.486780" lon="5.390400">
						<ele>375</ele>
						<time>2020-04-22T10:24:40Z</time>
					</trkpt>
					<trkpt lat="46.486600" lon="5.391060">
						<ele>385</ele>
						<time>2020-04-22T10:25:46Z</time>
					</trkpt>
					<trkpt lat="46.486430" lon="5.391410">
						<ele>390</ele>
						<time>2020-04-22T10:26:25Z</time>
					</trkpt>
					<trkpt lat="46.486350" lon="5.391580">
						<ele>393</ele>
						<time>2020-04-22T10:26:44Z</time>
					</trkpt>
					<trkpt lat="46.486150" lon="5.391680">
						<ele>394</ele>
						<time>2020-04-22T10:27:12Z</time>
					</trkpt>
					<trkpt lat="46.485880" lon="5.391970">
						<ele>401</ele>
						<time>2020-04-22T10:27:57Z</time>
					</trkpt>
					<trkpt lat="46.485550" lon="5.392070">
						<ele>404</ele>
						<time>2020-04-22T10:28:42Z</time>
					</trkpt>
					<trkpt lat="46.485090" lon="5.392520">
						<ele>416</ele>
						<time>2020-04-22T10:29:56Z</time>
					</trkpt>
					<trkpt lat="46.484910" lon="5.392620">
						<ele>419</ele>
						<time>2020-04-22T10:30:22Z</time>
					</trkpt>
					<trkpt lat="46.484700" lon="5.392720">
						<ele>422</ele>
						<time>2020-04-22T10:30:51Z</time>
					</trkpt>
					<trkpt lat="46.484700" lon="5.392880">
						<ele>426</ele>
						<time>2020-04-22T10:31:06Z</time>
					</trkpt>
					<trkpt lat="46.484480" lon="5.392950">
						<ele>429</ele>
						<time>2020-04-22T10:31:36Z</time>
					</trkpt>
					<trkpt lat="46.484350" lon="5.393130">
						<ele>433</ele>
						<time>2020-04-22T10:32:00Z</time>
					</trkpt>
					<trkpt lat="46.484350" lon="5.393350">
						<ele>439</ele>
						<time>2020-04-22T10:32:20Z</time>
					</trkpt>
					<trkpt lat="46.484170" lon="5.393650">
						<ele>445</ele>
						<time>2020-04-22T10:32:57Z</time>
					</trkpt>
					<trkpt lat="46.483690" lon="5.394260">
						<ele>454</ele>
						<time>2020-04-22T10:34:22Z</time>
					</trkpt>
					<trkpt lat="46.483400" lon="5.394630">
						<ele>458</ele>
						<time>2020-04-22T10:35:13Z</time>
					</trkpt>
					<trkpt lat="46.483220" lon="5.395120">
						<ele>463</ele>
						<time>2020-04-22T10:36:04Z</time>
					</trkpt>
					<trkpt lat="46.483050" lon="5.395410">
						<ele>464</ele>
						<time>2020-04-22T10:36:39Z</time>
					</trkpt>
					<trkpt lat="46.482960" lon="5.395590">
						<ele>465</ele>
						<time>2020-04-22T10:37:00Z</time>
					</trkpt>
					<trkpt lat="46.482660" lon="5.395770">
						<ele>463</ele>
						<time>2020-04-22T10:37:43Z</time>
					</trkpt>
					<trkpt lat="46.482720" lon="5.396160">
						<ele>467</ele>
						<time>2020-04-22T10:38:20Z</time>
					</trkpt>
					<trkpt lat="46.482770" lon="5.396430">
						<ele>469</ele>
						<time>2020-04-22T10:38:45Z</time>
					</trkpt>
					<trkpt lat="46.483210" lon="5.396920">
						<ele>476</ele>
						<time>2020-04-22T10:39:59Z</time>
					</trkpt>
					<trkpt lat="46.483750" lon="5.396760">
						<ele>480</ele>
						<time>2020-04-22T10:41:13Z</time>
					</trkpt>
					<trkpt lat="46.484300" lon="5.396880">
						<ele>484</ele>
						<time>2020-04-22T10:42:27Z</time>
					</trkpt>
					<trkpt lat="46.484680" lon="5.397000">
						<ele>487</ele>
						<time>2020-04-22T10:43:19Z</time>
					</trkpt>
					<trkpt lat="46.484880" lon="5.397230">
						<ele>491</ele>
						<time>2020-04-22T10:43:53Z</time>
					</trkpt>
					<trkpt lat="46.485100" lon="5.397880">
						<ele>497</ele>
						<time>2020-04-22T10:45:00Z</time>
					</trkpt>
					<trkpt lat="46.485130" lon="5.398220">
						<ele>499</ele>
						<time>2020-04-22T10:45:31Z</time>
					</trkpt>
					<trkpt lat="46.485210" lon="5.398530">
						<ele>500</ele>
						<time>2020-04-22T10:46:02Z</time>
					</trkpt>
					<trkpt lat="46.485850" lon="5.399890">
						<ele>507</ele>
						<time>2020-04-22T10:48:33Z</time>
					</trkpt>
					<trkpt lat="46.486210" lon="5.400190">
						<ele>509</ele>
						<time>2020-04-22T10:49:28Z</time>
					</trkpt>
					<trkpt lat="46.486320" lon="5.400480">
						<ele>509</ele>
						<time>2020-04-22T10:49:59Z</time>
					</trkpt>
					<trkpt lat="46.486370" lon="5.400780">
						<ele>510</ele>
						<time>2020-04-22T10:50:27Z</time>
					</trkpt>
					<trkpt lat="46.486520" lon="5.400990">
						<ele>510</ele>
						<time>2020-04-22T10:50:55Z</time>
					</trkpt>
					<trkpt lat="46.487520" lon="5.401590">
						<ele>513</ele>
						<time>2020-04-22T10:53:19Z</time>
					</trkpt>
					<trkpt lat="46.487970" lon="5.401770">
						<ele>514</ele>
						<time>2020-04-22T10:54:22Z</time>
					</trkpt>
					<trkpt lat="46.487860" lon="5.401840">
						<ele>513</ele>
						<time>2020-04-22T10:54:38Z</time>
					</trkpt>
					<trkpt lat="46.487650" lon="5.401950">
						<ele>513</ele>
						<time>2020-04-22T10:55:07Z</time>
					</trkpt>
					<trkpt lat="46.487370" lon="5.402070">
						<ele>513</ele>
						<time>2020-04-22T10:55:46Z</time>
					</trkpt>
					<trkpt lat="46.487160" lon="5.402200">
						<ele>513</ele>
						<time>2020-04-22T10:56:17Z</time>
					</trkpt>
					<trkpt lat="46.487020" lon="5.402460">
						<ele>513</ele>
						<time>2020-04-22T10:56:47Z</time>
					</trkpt>
					<trkpt lat="46.486890" lon="5.402770">
						<ele>514</ele>
						<time>2020-04-22T10:57:20Z</time>
					</trkpt>
					<trkpt lat="46.486760" lon="5.402960">
						<ele>515</ele>
						<time>2020-04-22T10:57:45Z</time>
					</trkpt>
					<trkpt lat="46.486530" lon="5.403400">
						<ele>518</ele>
						<time>2020-04-22T10:58:36Z</time>
					</trkpt>
					<trkpt lat="46.486420" lon="5.403570">
						<ele>519</ele>
						<time>2020-04-22T10:58:57Z</time>
					</trkpt>
					<trkpt lat="46.486300" lon="5.403960">
						<ele>521</ele>
						<time>2020-04-22T10:59:36Z</time>
					</trkpt>
					<trkpt lat="46.486200" lon="5.404250">
						<ele>523</ele>
						<time>2020-04-22T11:00:06Z</time>
					</trkpt>
					<trkpt lat="46.486160" lon="5.404500">
						<ele>524</ele>
						<time>2020-04-22T11:00:30Z</time>
					</trkpt>
					<trkpt lat="46.486410" lon="5.404750">
						<ele>524</ele>
						<time>2020-04-22T11:01:10Z</time>
					</trkpt>
					<trkpt lat="46.486490" lon="5.404960">
						<ele>525</ele>
						<time>2020-04-22T11:01:32Z</time>
					</trkpt>
					<trkpt lat="46.486590" lon="5.405270">
						<ele>526</ele>
						<time>2020-04-22T11:02:04Z</time>
					</trkpt>
					<trkpt lat="46.486740" lon="5.405500">
						<ele>527</ele>
						<time>2020-04-22T11:02:33Z</time>
					</trkpt>
					<trkpt lat="46.486670" lon="5.405770">
						<ele>530</ele>
						<time>2020-04-22T11:02:59Z</time>
					</trkpt>
					<trkpt lat="46.486680" lon="5.406030">
						<ele>532</ele>
						<time>2020-04-22T11:03:23Z</time>
					</trkpt>
					<trkpt lat="46.487020" lon="5.406600">
						<ele>534</ele>
						<time>2020-04-22T11:04:33Z</time>
					</trkpt>
					<trkpt lat="46.487120" lon="5.406920">
						<ele>537</ele>
						<time>2020-04-22T11:05:05Z</time>
					</trkpt>
					<trkpt lat="46.487410" lon="5.407160">
						<ele>536</ele>
						<time>2020-04-22T11:05:50Z</time>
					</trkpt>
					<trkpt lat="46.487610" lon="5.407420">
						<ele>537</ele>
						<time>2020-04-22T11:06:25Z</time>
					</trkpt>
					<trkpt lat="46.487920" lon="5.407670">
						<ele>537</ele>
						<time>2020-04-22T11:07:13Z</time>
					</trkpt>
					<trkpt lat="46.488220" lon="5.407760">
						<ele>536</ele>
						<time>2020-04-22T11:07:54Z</time>
					</trkpt>
					<trkpt lat="46.488310" lon="5.407830">
						<ele>536</ele>
						<time>2020-04-22T11:08:07Z</time>
					</trkpt>
					<trkpt lat="46.488350" lon="5.408090">
						<ele>539</ele>
						<time>2020-04-22T11:08:32Z</time>
					</trkpt>
					<trkpt lat="46.488350" lon="5.408200">
						<ele>541</ele>
						<time>2020-04-22T11:08:42Z</time>
					</trkpt>
					<trkpt lat="46.488390" lon="5.408300">
						<ele>542</ele>
						<time>2020-04-22T11:08:52Z</time>
					</trkpt>
					<trkpt lat="46.488400" lon="5.408410">
						<ele>543</ele>
						<time>2020-04-22T11:09:03Z</time>
					</trkpt>
					<trkpt lat="46.488370" lon="5.408460">
						<ele>544</ele>
						<time>2020-04-22T11:09:09Z</time>
					</trkpt>
					<trkpt lat="46.488380" lon="5.408700">
						<ele>545</ele>
						<time>2020-04-22T11:09:31Z</time>
					</trkpt>
					<trkpt lat="46.488290" lon="5.409350">
						<ele>550</ele>
						<time>2020-04-22T11:10:32Z</time>
					</trkpt>
					<trkpt lat="46.488130" lon="5.409560">
						<ele>553</ele>
						<time>2020-04-22T11:11:00Z</time>
					</trkpt>
					<trkpt lat="46.488100" lon="5.409700">
						<ele>553</ele>
						<time>2020-04-22T11:11:14Z</time>
					</trkpt>
					<trkpt lat="46.488070" lon="5.409960">
						<ele>554</ele>
						<time>2020-04-22T11:11:38Z</time>
					</trkpt>
					<trkpt lat="46.488080" lon="5.410910">
						<ele>557</ele>
						<time>2020-04-22T11:13:05Z</time>
					</trkpt>
					<trkpt lat="46.488100" lon="5.411090">
						<ele>560</ele>
						<time>2020-04-22T11:13:22Z</time>
					</trkpt>
					<trkpt lat="46.488150" lon="5.411260">
						<ele>562</ele>
						<time>2020-04-22T11:13:39Z</time>
					</trkpt>
					<trkpt lat="46.488260" lon="5.411480">
						<ele>564</ele>
						<time>2020-04-22T11:14:04Z</time>
					</trkpt>
					<trkpt lat="46.488340" lon="5.411720">
						<ele>567</ele>
						<time>2020-04-22T11:14:29Z</time>
					</trkpt>
					<trkpt lat="46.488350" lon="5.411830">
						<ele>567</ele>
						<time>2020-04-22T11:14:39Z</time>
					</trkpt>
					<trkpt lat="46.488340" lon="5.412000">
						<ele>567</ele>
						<time>2020-04-22T11:14:55Z</time>
					</trkpt>
					<trkpt lat="46.488280" lon="5.412170">
						<ele>568</ele>
						<time>2020-04-22T11:15:12Z</time>
					</trkpt>
					<trkpt lat="46.488300" lon="5.412280">
						<ele>568</ele>
						<time>2020-04-22T11:15:23Z</time>
					</trkpt>
					<trkpt lat="46.488430" lon="5.412380">
						<ele>568</ele>
						<time>2020-04-22T11:15:42Z</time>
					</trkpt>
					<trkpt lat="46.488980" lon="5.412850">
						<ele>573</ele>
						<time>2020-04-22T11:17:07Z</time>
					</trkpt>
					<trkpt lat="46.489640" lon="5.413040">
						<ele>582</ele>
						<time>2020-04-22T11:18:37Z</time>
					</trkpt>
					<trkpt lat="46.489890" lon="5.413190">
						<ele>586</ele>
						<time>2020-04-22T11:19:13Z</time>
					</trkpt>
					<trkpt lat="46.490280" lon="5.413260">
						<ele>586</ele>
						<time>2020-04-22T11:20:06Z</time>
					</trkpt>
					<trkpt lat="46.490470" lon="5.413340">
						<ele>586</ele>
						<time>2020-04-22T11:20:32Z</time>
					</trkpt>
					<trkpt lat="46.490750" lon="5.413360">
						<ele>584</ele>
						<time>2020-04-22T11:21:09Z</time>
					</trkpt>
					<trkpt lat="46.491200" lon="5.413530">
						<ele>582</ele>
						<time>2020-04-22T11:22:12Z</time>
					</trkpt>
					<trkpt lat="46.491650" lon="5.413630">
						<ele>580</ele>
						<time>2020-04-22T11:23:12Z</time>
					</trkpt>
					<trkpt lat="46.491870" lon="5.413710">
						<ele>578</ele>
						<time>2020-04-22T11:23:43Z</time>
					</trkpt>
					<trkpt lat="46.492370" lon="5.413820">
						<ele>576</ele>
						<time>2020-04-22T11:24:50Z</time>
					</trkpt>
					<trkpt lat="46.492550" lon="5.413830">
						<ele>575</ele>
						<time>2020-04-22T11:25:14Z</time>
					</trkpt>
					<trkpt lat="46.492730" lon="5.413800">
						<ele>575</ele>
						<time>2020-04-22T11:25:38Z</time>
					</trkpt>
					<trkpt lat="46.492800" lon="5.413740">
						<ele>574</ele>
						<time>2020-04-22T11:25:49Z</time>
					</trkpt>
					<trkpt lat="46.492820" lon="5.413660">
						<ele>575</ele>
						<time>2020-04-22T11:25:57Z</time>
					</trkpt>
					<trkpt lat="46.492830" lon="5.413480">
						<ele>575</ele>
						<time>2020-04-22T11:26:13Z</time>
					</trkpt>
					<trkpt lat="46.492910" lon="5.413480">
						<ele>575</ele>
						<time>2020-04-22T11:26:24Z</time>
					</trkpt>
					<trkpt lat="46.493150" lon="5.413400">
						<ele>575</ele>
						<time>2020-04-22T11:26:57Z</time>
					</trkpt>
					<trkpt lat="46.493370" lon="5.413290">
						<ele>575</ele>
						<time>2020-04-22T11:27:28Z</time>
					</trkpt>
					<trkpt lat="46.493880" lon="5.413250">
						<ele>579</ele>
						<time>2020-04-22T11:28:36Z</time>
					</trkpt>
					<trkpt lat="46.494140" lon="5.413270">
						<ele>581</ele>
						<time>2020-04-22T11:29:11Z</time>
					</trkpt>
					<trkpt lat="46.494750" lon="5.413510">
						<ele>587</ele>
						<time>2020-04-22T11:30:35Z</time>
					</trkpt>
					<trkpt lat="46.495050" lon="5.413690">
						<ele>589</ele>
						<time>2020-04-22T11:31:19Z</time>
					</trkpt>
					<trkpt lat="46.495160" lon="5.413740">
						<ele>590</ele>
						<time>2020-04-22T11:31:34Z</time>
					</trkpt>
					<trkpt lat="46.495520" lon="5.413790">
						<ele>591</ele>
						<time>2020-04-22T11:32:22Z</time>
					</trkpt>
					<trkpt lat="46.495720" lon="5.413860">
						<ele>593</ele>
						<time>2020-04-22T11:32:50Z</time>
					</trkpt>
					<trkpt lat="46.495960" lon="5.413880">
						<ele>594</ele>
						<time>2020-04-22T11:33:22Z</time>
					</trkpt>
					<trkpt lat="46.496270" lon="5.413940">
						<ele>595</ele>
						<time>2020-04-22T11:34:04Z</time>
					</trkpt>
					<trkpt lat="46.496320" lon="5.413910">
						<ele>595</ele>
						<time>2020-04-22T11:34:11Z</time>
					</trkpt>
					<trkpt lat="46.496610" lon="5.414130">
						<ele>598</ele>
						<time>2020-04-22T11:34:54Z</time>
					</trkpt>
					<trkpt lat="46.496730" lon="5.414190">
						<ele>599</ele>
						<time>2020-04-22T11:35:11Z</time>
					</trkpt>
					<trkpt lat="46.497030" lon="5.414270">
						<ele>598</ele>
						<time>2020-04-22T11:35:52Z</time>
					</trkpt>
					<trkpt lat="46.497300" lon="5.414380">
						<ele>598</ele>
						<time>2020-04-22T11:36:29Z</time>
					</trkpt>
					<trkpt lat="46.497520" lon="5.414470">
						<ele>598</ele>
						<time>2020-04-22T11:37:00Z</time>
					</trkpt>
					<trkpt lat="46.497670" lon="5.414570">
						<ele>597</ele>
						<time>2020-04-22T11:37:22Z</time>
					</trkpt>
					<trkpt lat="46.497810" lon="5.414720">
						<ele>598</ele>
						<time>2020-04-22T11:37:45Z</time>
					</trkpt>
					<trkpt lat="46.497940" lon="5.414890">
						<ele>599</ele>
						<time>2020-04-22T11:38:09Z</time>
					</trkpt>
					<trkpt lat="46.497980" lon="5.415010">
						<ele>600</ele>
						<time>2020-04-22T11:38:21Z</time>
					</trkpt>
					<trkpt lat="46.498000" lon="5.415110">
						<ele>601</ele>
						<time>2020-04-22T11:38:30Z</time>
					</trkpt>
					<trkpt lat="46.498030" lon="5.415230">
						<ele>601</ele>
						<time>2020-04-22T11:38:42Z</time>
					</trkpt>
					<trkpt lat="46.498140" lon="5.415580">
						<ele>603</ele>
						<time>2020-04-22T11:39:17Z</time>
					</trkpt>
					<trkpt lat="46.498210" lon="5.415730">
						<ele>604</ele>
						<time>2020-04-22T11:39:34Z</time>
					</trkpt>
					<trkpt lat="46.499170" lon="5.417240">
						<ele>614</ele>
						<time>2020-04-22T11:42:43Z</time>
					</trkpt>
					<trkpt lat="46.499250" lon="5.417330">
						<ele>615</ele>
						<time>2020-04-22T11:42:56Z</time>
					</trkpt>
					<trkpt lat="46.499380" lon="5.417420">
						<ele>616</ele>
						<time>2020-04-22T11:43:16Z</time>
					</trkpt>
					<trkpt lat="46.499800" lon="5.417620">
						<ele>620</ele>
						<time>2020-04-22T11:44:15Z</time>
					</trkpt>
					<trkpt lat="46.500020" lon="5.417760">
						<ele>623</ele>
						<time>2020-04-22T11:44:47Z</time>
					</trkpt>
					<trkpt lat="46.500190" lon="5.417780">
						<ele>623</ele>
						<time>2020-04-22T11:45:09Z</time>
					</trkpt>
					<trkpt lat="46.500840" lon="5.417960">
						<ele>624</ele>
						<time>2020-04-22T11:46:38Z</time>
					</trkpt>
					<trkpt lat="46.501650" lon="5.418260">
						<ele>627</ele>
						<time>2020-04-22T11:48:29Z</time>
					</trkpt>
					<trkpt lat="46.501720" lon="5.418290">
						<ele>627</ele>
						<time>2020-04-22T11:48:39Z</time>
					</trkpt>
					<trkpt lat="46.501960" lon="5.418280">
						<ele>626</ele>
						<time>2020-04-22T11:49:11Z</time>
					</trkpt>
					<trkpt lat="46.502200" lon="5.418340">
						<ele>626</ele>
						<time>2020-04-22T11:49:44Z</time>
					</trkpt>
					<trkpt lat="46.502290" lon="5.418260">
						<ele>625</ele>
						<time>2020-04-22T11:49:58Z</time>
					</trkpt>
					<trkpt lat="46.502400" lon="5.417720">
						<ele>617</ele>
						<time>2020-04-22T11:50:49Z</time>
					</trkpt>
					<trkpt lat="46.502430" lon="5.417640">
						<ele>616</ele>
						<time>2020-04-22T11:50:58Z</time>
					</trkpt>
					<trkpt lat="46.502470" lon="5.417590">
						<ele>615</ele>
						<time>2020-04-22T11:51:05Z</time>
					</trkpt>
					<trkpt lat="46.502590" lon="5.417500">
						<ele>614</ele>
						<time>2020-04-22T11:51:23Z</time>
					</trkpt>
					<trkpt lat="46.502660" lon="5.417460">
						<ele>613</ele>
						<time>2020-04-22T11:51:33Z</time>
					</trkpt>
					<trkpt lat="46.502690" lon="5.417410">
						<ele>612</ele>
						<time>2020-04-22T11:51:39Z</time>
					</trkpt>
					<trkpt lat="46.502710" lon="5.417300">
						<ele>610</ele>
						<time>2020-04-22T11:51:49Z</time>
					</trkpt>
					<trkpt lat="46.502710" lon="5.417100">
						<ele>608</ele>
						<time>2020-04-22T11:52:08Z</time>
					</trkpt>
					<trkpt lat="46.502720" lon="5.417000">
						<ele>607</ele>
						<time>2020-04-22T11:52:17Z</time>
					</trkpt>
					<trkpt lat="46.502750" lon="5.416890">
						<ele>605</ele>
						<time>2020-04-22T11:52:28Z</time>
					</trkpt>
					<trkpt lat="46.502800" lon="5.416790">
						<ele>604</ele>
						<time>2020-04-22T11:52:39Z</time>
					</trkpt>
					<trkpt lat="46.502960" lon="5.416550">
						<ele>601</ele>
						<time>2020-04-22T11:53:10Z</time>
					</trkpt>
					<trkpt lat="46.503010" lon="5.416420">
						<ele>600</ele>
						<time>2020-04-22T11:53:24Z</time>
					</trkpt>
					<trkpt lat="46.503090" lon="5.416040">
						<ele>598</ele>
						<time>2020-04-22T11:54:00Z</time>
					</trkpt>
					<trkpt lat="46.503120" lon="5.415920">
						<ele>597</ele>
						<time>2020-04-22T11:54:12Z</time>
					</trkpt>
					<trkpt lat="46.503330" lon="5.415280">
						<ele>594</ele>
						<time>2020-04-22T11:55:17Z</time>
					</trkpt>
					<trkpt lat="46.503450" lon="5.415110">
						<ele>593</ele>
						<time>2020-04-22T11:55:39Z</time>
					</trkpt>
					<trkpt lat="46.503400" lon="5.415000">
						<ele>592</ele>
						<time>2020-04-22T11:55:51Z</time>
					</trkpt>
					<trkpt lat="46.503370" lon="5.414950">
						<ele>592</ele>
						<time>2020-04-22T11:55:58Z</time>
					</trkpt>
					<trkpt lat="46.503410" lon="5.414840">
						<ele>591</ele>
						<time>2020-04-22T11:56:09Z</time>
					</trkpt>
					<trkpt lat="46.503380" lon="5.414600">
						<ele>588</ele>
						<time>2020-04-22T11:56:31Z</time>
					</trkpt>
					<trkpt lat="46.503350" lon="5.414510">
						<ele>587</ele>
						<time>2020-04-22T11:56:41Z</time>
					</trkpt>
					<trkpt lat="46.503240" lon="5.414440">
						<ele>585</ele>
						<time>2020-04-22T11:56:57Z</time>
					</trkpt>
					<trkpt lat="46.503220" lon="5.414380">
						<ele>584</ele>
						<time>2020-04-22T11:57:03Z</time>
					</trkpt>
					<trkpt lat="46.503260" lon="5.414330">
						<ele>584</ele>
						<time>2020-04-22T11:57:10Z</time>
					</trkpt>
					<trkpt lat="46.503230" lon="5.414240">
						<ele>583</ele>
						<time>2020-04-22T11:57:19Z</time>
					</trkpt>
					<trkpt lat="46.503220" lon="5.414160">
						<ele>582</ele>
						<time>2020-04-22T11:57:26Z</time>
					</trkpt>
					<trkpt lat="46.503240" lon="5.414110">
						<ele>583</ele>
						<time>2020-04-22T11:57:32Z</time>
					</trkpt>
					<trkpt lat="46.503130" lon="5.413870">
						<ele>583</ele>
						<time>2020-04-22T11:57:58Z</time>
					</trkpt>
					<trkpt lat="46.502830" lon="5.413460">
						<ele>581</ele>
						<time>2020-04-22T11:58:53Z</time>
					</trkpt>
					<trkpt lat="46.502160" lon="5.412640">
						<ele>576</ele>
						<time>2020-04-22T12:00:50Z</time>
					</trkpt>
					<trkpt lat="46.501670" lon="5.411990">
						<ele>570</ele>
						<time>2020-04-22T12:02:19Z</time>
					</trkpt>
					<trkpt lat="46.501570" lon="5.411860">
						<ele>570</ele>
						<time>2020-04-22T12:02:36Z</time>
					</trkpt>
					<trkpt lat="46.501490" lon="5.411700">
						<ele>570</ele>
						<time>2020-04-22T12:02:55Z</time>
					</trkpt>
					<trkpt lat="46.501370" lon="5.411550">
						<ele>568</ele>
						<time>2020-04-22T12:03:16Z</time>
					</trkpt>
					<trkpt lat="46.501340" lon="5.411380">
						<ele>567</ele>
						<time>2020-04-22T12:03:32Z</time>
					</trkpt>
					<trkpt lat="46.501310" lon="5.411320">
						<ele>566</ele>
						<time>2020-04-22T12:03:39Z</time>
					</trkpt>
					<trkpt lat="46.501140" lon="5.411190">
						<ele>564</ele>
						<time>2020-04-22T12:04:04Z</time>
					</trkpt>
					<trkpt lat="46.501060" lon="5.411120">
						<ele>563</ele>
						<time>2020-04-22T12:04:17Z</time>
					</trkpt>
					<trkpt lat="46.500940" lon="5.410930">
						<ele>561</ele>
						<time>2020-04-22T12:04:41Z</time>
					</trkpt>
					<trkpt lat="46.500810" lon="5.410670">
						<ele>558</ele>
						<time>2020-04-22T12:05:10Z</time>
					</trkpt>
					<trkpt lat="46.500640" lon="5.410250">
						<ele>552</ele>
						<time>2020-04-22T12:05:55Z</time>
					</trkpt>
					<trkpt lat="46.500380" lon="5.409530">
						<ele>546</ele>
						<time>2020-04-22T12:07:09Z</time>
					</trkpt>
					<trkpt lat="46.500250" lon="5.409220">
						<ele>545</ele>
						<time>2020-04-22T12:07:43Z</time>
					</trkpt>
					<trkpt lat="46.500110" lon="5.409030">
						<ele>544</ele>
						<time>2020-04-22T12:08:08Z</time>
					</trkpt>
					<trkpt lat="46.500000" lon="5.408840">
						<ele>543</ele>
						<time>2020-04-22T12:08:31Z</time>
					</trkpt>
					<trkpt lat="46.499950" lon="5.408710">
						<ele>542</ele>
						<time>2020-04-22T12:08:45Z</time>
					</trkpt>
					<trkpt lat="46.499930" lon="5.408580">
						<ele>541</ele>
						<time>2020-04-22T12:08:57Z</time>
					</trkpt>
					<trkpt lat="46.499910" lon="5.408190">
						<ele>538</ele>
						<time>2020-04-22T12:09:33Z</time>
					</trkpt>
					<trkpt lat="46.499880" lon="5.408040">
						<ele>537</ele>
						<time>2020-04-22T12:09:47Z</time>
					</trkpt>
					<trkpt lat="46.499830" lon="5.407920">
						<ele>537</ele>
						<time>2020-04-22T12:10:00Z</time>
					</trkpt>
					<trkpt lat="46.499750" lon="5.407820">
						<ele>536</ele>
						<time>2020-04-22T12:10:14Z</time>
					</trkpt>
					<trkpt lat="46.499710" lon="5.407490">
						<ele>535</ele>
						<time>2020-04-22T12:10:45Z</time>
					</trkpt>
					<trkpt lat="46.499760" lon="5.406410">
						<ele>530</ele>
						<time>2020-04-22T12:12:25Z</time>
					</trkpt>
					<trkpt lat="46.499800" lon="5.406260">
						<ele>529</ele>
						<time>2020-04-22T12:12:39Z</time>
					</trkpt>
					<trkpt lat="46.499920" lon="5.406130">
						<ele>528</ele>
						<time>2020-04-22T12:12:59Z</time>
					</trkpt>
					<trkpt lat="46.500010" lon="5.406100">
						<ele>527</ele>
						<time>2020-04-22T12:13:12Z</time>
					</trkpt>
					<trkpt lat="46.500110" lon="5.406140">
						<ele>525</ele>
						<time>2020-04-22T12:13:25Z</time>
					</trkpt>
					<trkpt lat="46.500160" lon="5.406190">
						<ele>524</ele>
						<time>2020-04-22T12:13:34Z</time>
					</trkpt>
					<trkpt lat="46.500230" lon="5.406330">
						<ele>523</ele>
						<time>2020-04-22T12:13:49Z</time>
					</trkpt>
					<trkpt lat="46.500630" lon="5.407240">
						<ele>522</ele>
						<time>2020-04-22T12:15:29Z</time>
					</trkpt>
					<trkpt lat="46.500870" lon="5.407830">
						<ele>524</ele>
						<time>2020-04-22T12:16:32Z</time>
					</trkpt>
					<trkpt lat="46.500940" lon="5.408040">
						<ele>526</ele>
						<time>2020-04-22T12:16:53Z</time>
					</trkpt>
					<trkpt lat="46.501040" lon="5.408230">
						<ele>527</ele>
						<time>2020-04-22T12:17:15Z</time>
					</trkpt>
					<trkpt lat="46.501140" lon="5.408340">
						<ele>528</ele>
						<time>2020-04-22T12:17:32Z</time>
					</trkpt>
					<trkpt lat="46.501220" lon="5.408390">
						<ele>528</ele>
						<time>2020-04-22T12:17:43Z</time>
					</trkpt>
					<trkpt lat="46.501380" lon="5.408440">
						<ele>528</ele>
						<time>2020-04-22T12:18:05Z</time>
					</trkpt>
					<trkpt lat="46.501510" lon="5.408400">
						<ele>526</ele>
						<time>2020-04-22T12:18:23Z</time>
					</trkpt>
					<trkpt lat="46.501840" lon="5.408280">
						<ele>521</ele>
						<time>2020-04-22T12:19:08Z</time>
					</trkpt>
					<trkpt lat="46.501880" lon="5.408240">
						<ele>520</ele>
						<time>2020-04-22T12:19:15Z</time>
					</trkpt>
					<trkpt lat="46.501940" lon="5.408190">
						<ele>518</ele>
						<time>2020-04-22T12:19:24Z</time>
					</trkpt>
					<trkpt lat="46.502070" lon="5.408150">
						<ele>516</ele>
						<time>2020-04-22T12:19:42Z</time>
					</trkpt>
					<trkpt lat="46.502250" lon="5.408150">
						<ele>515</ele>
						<time>2020-04-22T12:20:06Z</time>
					</trkpt>
					<trkpt lat="46.502490" lon="5.408220">
						<ele>515</ele>
						<time>2020-04-22T12:20:38Z</time>
					</trkpt>
					<trkpt lat="46.502700" lon="5.408300">
						<ele>516</ele>
						<time>2020-04-22T12:21:07Z</time>
					</trkpt>
					<trkpt lat="46.502870" lon="5.408320">
						<ele>514</ele>
						<time>2020-04-22T12:21:30Z</time>
					</trkpt>
					<trkpt lat="46.503040" lon="5.408290">
						<ele>511</ele>
						<time>2020-04-22T12:21:53Z</time>
					</trkpt>
					<trkpt lat="46.503290" lon="5.408310">
						<ele>509</ele>
						<time>2020-04-22T12:22:26Z</time>
					</trkpt>
					<trkpt lat="46.503500" lon="5.408340">
						<ele>507</ele>
						<time>2020-04-22T12:22:55Z</time>
					</trkpt>
					<trkpt lat="46.503630" lon="5.408370">
						<ele>506</ele>
						<time>2020-04-22T12:23:12Z</time>
					</trkpt>
					<trkpt lat="46.503880" lon="5.408500">
						<ele>508</ele>
						<time>2020-04-22T12:23:48Z</time>
					</trkpt>
					<trkpt lat="46.504260" lon="5.408740">
						<ele>510</ele>
						<time>2020-04-22T12:24:43Z</time>
					</trkpt>
					<trkpt lat="46.504940" lon="5.408980">
						<ele>501</ele>
						<time>2020-04-22T12:26:16Z</time>
					</trkpt>
					<trkpt lat="46.505140" lon="5.409040">
						<ele>499</ele>
						<time>2020-04-22T12:26:44Z</time>
					</trkpt>
					<trkpt lat="46.505290" lon="5.409160">
						<ele>501</ele>
						<time>2020-04-22T12:27:06Z</time>
					</trkpt>
					<trkpt lat="46.505600" lon="5.409220">
						<ele>498</ele>
						<time>2020-04-22T12:27:48Z</time>
					</trkpt>
					<trkpt lat="46.505780" lon="5.409300">
						<ele>499</ele>
						<time>2020-04-22T12:28:13Z</time>
					</trkpt>
					<trkpt lat="46.505880" lon="5.409420">
						<ele>502</ele>
						<time>2020-04-22T12:28:31Z</time>
					</trkpt>
					<trkpt lat="46.505990" lon="5.409480">
						<ele>504</ele>
						<time>2020-04-22T12:28:46Z</time>
					</trkpt>
					<trkpt lat="46.506210" lon="5.409530">
						<ele>503</ele>
						<time>2020-04-22T12:29:16Z</time>
					</trkpt>
					<trkpt lat="46.506360" lon="5.409490">
						<ele>499</ele>
						<time>2020-04-22T12:29:36Z</time>
					</trkpt>
					<trkpt lat="46.506490" lon="5.409390">
						<ele>494</ele>
						<time>2020-04-22T12:29:56Z</time>
					</trkpt>
					<trkpt lat="46.506750" lon="5.409080">
						<ele>482</ele>
						<time>2020-04-22T12:30:41Z</time>
					</trkpt>
					<trkpt lat="46.507100" lon="5.408830">
						<ele>478</ele>
						<time>2020-04-22T12:31:33Z</time>
					</trkpt>
					<trkpt lat="46.507320" lon="5.408610">
						<ele>474</ele>
						<time>2020-04-22T12:32:08Z</time>
					</trkpt>
					<trkpt lat="46.507680" lon="5.408210">
						<ele>467</ele>
						<time>2020-04-22T12:33:09Z</time>
					</trkpt>
					<trkpt lat="46.507900" lon="5.407850">
						<ele>461</ele>
						<time>2020-04-22T12:33:53Z</time>
					</trkpt>
					<trkpt lat="46.508240" lon="5.407260">
						<ele>453</ele>
						<time>2020-04-22T12:35:04Z</time>
					</trkpt>
					<trkpt lat="46.508390" lon="5.406940">
						<ele>449</ele>
						<time>2020-04-22T12:35:39Z</time>
					</trkpt>
					<trkpt lat="46.508500" lon="5.406730">
						<ele>446</ele>
						<time>2020-04-22T12:36:04Z</time>
					</trkpt>
					<trkpt lat="46.508750" lon="5.406160">
						<ele>439</ele>
						<time>2020-04-22T12:37:06Z</time>
					</trkpt>
					<trkpt lat="46.508950" lon="5.405630">
						<ele>435</ele>
						<time>2020-04-22T12:38:01Z</time>
					</trkpt>
					<trkpt lat="46.509030" lon="5.405450">
						<ele>434</ele>
						<time>2020-04-22T12:38:21Z</time>
					</trkpt>
					<trkpt lat="46.509070" lon="5.405330">
						<ele>434</ele>
						<time>2020-04-22T12:38:33Z</time>
					</trkpt>
					<trkpt lat="46.509080" lon="5.405070">
						<ele>433</ele>
						<time>2020-04-22T12:38:57Z</time>
					</trkpt>
					<trkpt lat="46.509160" lon="5.404860">
						<ele>435</ele>
						<time>2020-04-22T12:39:19Z</time>
					</trkpt>
					<trkpt lat="46.509050" lon="5.404240">
						<ele>436</ele>
						<time>2020-04-22T12:40:18Z</time>
					</trkpt>
					<trkpt lat="46.509070" lon="5.403530">
						<ele>441</ele>
						<time>2020-04-22T12:41:23Z</time>
					</trkpt>
					<trkpt lat="46.509100" lon="5.403240">
						<ele>444</ele>
						<time>2020-04-22T12:41:50Z</time>
					</trkpt>
					<trkpt lat="46.509230" lon="5.402840">
						<ele>446</ele>
						<time>2020-04-22T12:42:31Z</time>
					</trkpt>
					<trkpt lat="46.509410" lon="5.402320">
						<ele>445</ele>
						<time>2020-04-22T12:43:24Z</time>
					</trkpt>
					<trkpt lat="46.509430" lon="5.402080">
						<ele>443</ele>
						<time>2020-04-22T12:43:46Z</time>
					</trkpt>
					<trkpt lat="46.509400" lon="5.401750">
						<ele>440</ele>
						<time>2020-04-22T12:44:17Z</time>
					</trkpt>
					<trkpt lat="46.509320" lon="5.401440">
						<ele>436</ele>
						<time>2020-04-22T12:44:47Z</time>
					</trkpt>
					<trkpt lat="46.509180" lon="5.401090">
						<ele>431</ele>
						<time>2020-04-22T12:45:25Z</time>
					</trkpt>
					<trkpt lat="46.509170" lon="5.400970">
						<ele>429</ele>
						<time>2020-04-22T12:45:36Z</time>
					</trkpt>
					<trkpt lat="46.509250" lon="5.400790">
						<ele>426</ele>
						<time>2020-04-22T12:45:55Z</time>
					</trkpt>
					<trkpt lat="46.509380" lon="5.400770">
						<ele>425</ele>
						<time>2020-04-22T12:46:13Z</time>
					</trkpt>
					<trkpt lat="46.509580" lon="5.400780">
						<ele>424</ele>
						<time>2020-04-22T12:46:40Z</time>
					</trkpt>
					<trkpt lat="46.509730" lon="5.400720">
						<ele>422</ele>
						<time>2020-04-22T12:47:00Z</time>
					</trkpt>
					<trkpt lat="46.509940" lon="5.400420">
						<ele>417</ele>
						<time>2020-04-22T12:47:40Z</time>
					</trkpt>
					<trkpt lat="46.509990" lon="5.400230">
						<ele>414</ele>
						<time>2020-04-22T12:47:58Z</time>
					</trkpt>
					<trkpt lat="46.509990" lon="5.399990">
						<ele>411</ele>
						<time>2020-04-22T12:48:20Z</time>
					</trkpt>
					<trkpt lat="46.509990" lon="5.399680">
						<ele>408</ele>
						<time>2020-04-22T12:48:49Z</time>
					</trkpt>
					<trkpt lat="46.509970" lon="5.399460">
						<ele>406</ele>
						<time>2020-04-22T12:49:09Z</time>
					</trkpt>
					<trkpt lat="46.509940" lon="5.399270">
						<ele>404</ele>
						<time>2020-04-22T12:49:27Z</time>
					</trkpt>
					<trkpt lat="46.509910" lon="5.399120">
						<ele>402</ele>
						<time>2020-04-22T12:49:41Z</time>
					</trkpt>
					<trkpt lat="46.509870" lon="5.398960">
						<ele>402</ele>
						<time>2020-04-22T12:49:57Z</time>
					</trkpt>
					<trkpt lat="46.509810" lon="5.398850">
						<ele>401</ele>
						<time>2020-04-22T12:50:10Z</time>
					</trkpt>
					<trkpt lat="46.509720" lon="5.398760">
						<ele>399</ele>
						<time>2020-04-22T12:50:25Z</time>
					</trkpt>
					<trkpt lat="46.509560" lon="5.398650">
						<ele>397</ele>
						<time>2020-04-22T12:50:48Z</time>
					</trkpt>
					<trkpt lat="46.509420" lon="5.398670">
						<ele>395</ele>
						<time>2020-04-22T12:51:07Z</time>
					</trkpt>
					<trkpt lat="46.509420" lon="5.398490">
						<ele>394</ele>
						<time>2020-04-22T12:51:23Z</time>
					</trkpt>
					<trkpt lat="46.509320" lon="5.397790">
						<ele>385</ele>
						<time>2020-04-22T12:52:29Z</time>
					</trkpt>
					<trkpt lat="46.509290" lon="5.397510">
						<ele>382</ele>
						<time>2020-04-22T12:52:55Z</time>
					</trkpt>
					<trkpt lat="46.509320" lon="5.397290">
						<ele>381</ele>
						<time>2020-04-22T12:53:16Z</time>
					</trkpt>
					<trkpt lat="46.509350" lon="5.397080">
						<ele>379</ele>
						<time>2020-04-22T12:53:35Z</time>
					</trkpt>
					<trkpt lat="46.509550" lon="5.396310">
						<ele>372</ele>
						<time>2020-04-22T12:54:51Z</time>
					</trkpt>
					<trkpt lat="46.509420" lon="5.396280">
						<ele>369</ele>
						<time>2020-04-22T12:55:09Z</time>
					</trkpt>
					<trkpt lat="46.509220" lon="5.396440">
						<ele>368</ele>
						<time>2020-04-22T12:55:39Z</time>
					</trkpt>
					<trkpt lat="46.508680" lon="5.397030">
						<ele>372</ele>
						<time>2020-04-22T12:57:09Z</time>
					</trkpt>
					<trkpt lat="46.508560" lon="5.397090">
						<ele>372</ele>
						<time>2020-04-22T12:57:26Z</time>
					</trkpt>
					<trkpt lat="46.508470" lon="5.397120">
						<ele>372</ele>
						<time>2020-04-22T12:57:38Z</time>
					</trkpt>
					<trkpt lat="46.508400" lon="5.397080">
						<ele>371</ele>
						<time>2020-04-22T12:57:48Z</time>
					</trkpt>
					<trkpt lat="46.508370" lon="5.397000">
						<ele>370</ele>
						<time>2020-04-22T12:57:57Z</time>
					</trkpt>
					<trkpt lat="46.508430" lon="5.395770">
						<ele>350</ele>
						<time>2020-04-22T12:59:50Z</time>
					</trkpt>
					<trkpt lat="46.508430" lon="5.395420">
						<ele>344</ele>
						<time>2020-04-22T13:00:22Z</time>
					</trkpt>
					<trkpt lat="46.508400" lon="5.395010">
						<ele>336</ele>
						<time>2020-04-22T13:01:00Z</time>
					</trkpt>
					<trkpt lat="46.508310" lon="5.394500">
						<ele>325</ele>
						<time>2020-04-22T13:01:48Z</time>
					</trkpt>
					<trkpt lat="46.508220" lon="5.394180">
						<ele>319</ele>
						<time>2020-04-22T13:02:20Z</time>
					</trkpt>
					<trkpt lat="46.508140" lon="5.394000">
						<ele>314</ele>
						<time>2020-04-22T13:02:40Z</time>
					</trkpt>
					<trkpt lat="46.508010" lon="5.393920">
						<ele>312</ele>
						<time>2020-04-22T13:02:59Z</time>
					</trkpt>
					<trkpt lat="46.507780" lon="5.393830">
						<ele>309</ele>
						<time>2020-04-22T13:03:31Z</time>
					</trkpt>
					<trkpt lat="46.507500" lon="5.393840">
						<ele>308</ele>
						<time>2020-04-22T13:04:08Z</time>
					</trkpt>
					<trkpt lat="46.507020" lon="5.394000">
						<ele>303</ele>
						<time>2020-04-22T13:05:14Z</time>
					</trkpt>
					<trkpt lat="46.506810" lon="5.394120">
						<ele>301</ele>
						<time>2020-04-22T13:05:44Z</time>
					</trkpt>
					<trkpt lat="46.506610" lon="5.394280">
						<ele>301</ele>
						<time>2020-04-22T13:06:14Z</time>
					</trkpt>
					<trkpt lat="46.506080" lon="5.394970">
						<ele>302</ele>
						<time>2020-04-22T13:07:49Z</time>
					</trkpt>
					<trkpt lat="46.505980" lon="5.395030">
						<ele>300</ele>
						<time>2020-04-22T13:08:04Z</time>
					</trkpt>
					<trkpt lat="46.505840" lon="5.395280">
						<ele>300</ele>
						<time>2020-04-22T13:08:33Z</time>
					</trkpt>
					<trkpt lat="46.505690" lon="5.395680">
						<ele>304</ele>
						<time>2020-04-22T13:09:15Z</time>
					</trkpt>
					<trkpt lat="46.505510" lon="5.396570">
						<ele>315</ele>
						<time>2020-04-22T13:10:40Z</time>
					</trkpt>
					<trkpt lat="46.505410" lon="5.397020">
						<ele>319</ele>
						<time>2020-04-22T13:11:24Z</time>
					</trkpt>
					<trkpt lat="46.505360" lon="5.397130">
						<ele>320</ele>
						<time>2020-04-22T13:11:36Z</time>
					</trkpt>
					<trkpt lat="46.505180" lon="5.397290">
						<ele>319</ele>
						<time>2020-04-22T13:12:04Z</time>
					</trkpt>
					<trkpt lat="46.505070" lon="5.397330">
						<ele>317</ele>
						<time>2020-04-22T13:12:19Z</time>
					</trkpt>
					<trkpt lat="46.505010" lon="5.397320">
						<ele>316</ele>
						<time>2020-04-22T13:12:27Z</time>
					</trkpt>
					<trkpt lat="46.504940" lon="5.397250">
						<ele>316</ele>
						<time>2020-04-22T13:12:38Z</time>
					</trkpt>
					<trkpt lat="46.504870" lon="5.397110">
						<ele>315</ele>
						<time>2020-04-22T13:12:54Z</time>
					</trkpt>
					<trkpt lat="46.504770" lon="5.396950">
						<ele>314</ele>
						<time>2020-04-22T13:13:14Z</time>
					</trkpt>
					<trkpt lat="46.504710" lon="5.396870">
						<ele>313</ele>
						<time>2020-04-22T13:13:25Z</time>
					</trkpt>
					<trkpt lat="46.504660" lon="5.396860">
						<ele>314</ele>
						<time>2020-04-22T13:13:32Z</time>
					</trkpt>
					<trkpt lat="46.504230" lon="5.396520">
						<ele>310</ele>
						<time>2020-04-22T13:14:37Z</time>
					</trkpt>
					<trkpt lat="46.504080" lon="5.396470">
						<ele>309</ele>
						<time>2020-04-22T13:14:58Z</time>
					</trkpt>
					<trkpt lat="46.504010" lon="5.396410">
						<ele>308</ele>
						<time>2020-04-22T13:15:09Z</time>
					</trkpt>
					<trkpt lat="46.503670" lon="5.395910">
						<ele>301</ele>
						<time>2020-04-22T13:16:13Z</time>
					</trkpt>
					<trkpt lat="46.503400" lon="5.395370">
						<ele>298</ele>
						<time>2020-04-22T13:17:14Z</time>
					</trkpt>
					<trkpt lat="46.503330" lon="5.395150">
						<ele>297</ele>
						<time>2020-04-22T13:17:37Z</time>
					</trkpt>
					<trkpt lat="46.503300" lon="5.395090">
						<ele>297</ele>
						<time>2020-04-22T13:17:43Z</time>
					</trkpt>
					<trkpt lat="46.503100" lon="5.394790">
						<ele>296</ele>
						<time>2020-04-22T13:18:22Z</time>
					</trkpt>
					<trkpt lat="46.502970" lon="5.394550">
						<ele>296</ele>
						<time>2020-04-22T13:18:50Z</time>
					</trkpt>
					<trkpt lat="46.502900" lon="5.394470">
						<ele>296</ele>
						<time>2020-04-22T13:19:02Z</time>
					</trkpt>
					<trkpt lat="46.502270" lon="5.394100">
						<ele>295</ele>
						<time>2020-04-22T13:20:32Z</time>
					</trkpt>
					<trkpt lat="46.502190" lon="5.394040">
						<ele>295</ele>
						<time>2020-04-22T13:20:44Z</time>
					</trkpt>
					<trkpt lat="46.502130" lon="5.393940">
						<ele>295</ele>
						<time>2020-04-22T13:20:57Z</time>
					</trkpt>
					<trkpt lat="46.502100" lon="5.393850">
						<ele>295</ele>
						<time>2020-04-22T13:21:06Z</time>
					</trkpt>
					<trkpt lat="46.502060" lon="5.393710">
						<ele>295</ele>
						<time>2020-04-22T13:21:20Z</time>
					</trkpt>
					<trkpt lat="46.502000" lon="5.393620">
						<ele>295</ele>
						<time>2020-04-22T13:21:31Z</time>
					</trkpt>
					<trkpt lat="46.501520" lon="5.393570">
						<ele>292</ele>
						<time>2020-04-22T13:22:36Z</time>
					</trkpt>
					<trkpt lat="46.501240" lon="5.393470">
						<ele>291</ele>
						<time>2020-04-22T13:23:14Z</time>
					</trkpt>
					<trkpt lat="46.500990" lon="5.393250">
						<ele>289</ele>
						<time>2020-04-22T13:23:53Z</time>
					</trkpt>
					<trkpt lat="46.500490" lon="5.392610">
						<ele>288</ele>
						<time>2020-04-22T13:25:22Z</time>
					</trkpt>
					<trkpt lat="46.500210" lon="5.392300">
						<ele>286</ele>
						<time>2020-04-22T13:26:09Z</time>
					</trkpt>
					<trkpt lat="46.499600" lon="5.391660">
						<ele>283</ele>
						<time>2020-04-22T13:27:49Z</time>
					</trkpt>
					<trkpt lat="46.499380" lon="5.391340">
						<ele>282</ele>
						<time>2020-04-22T13:28:31Z</time>
					</trkpt>
					<trkpt lat="46.499170" lon="5.390920">
						<ele>281</ele>
						<time>2020-04-22T13:29:19Z</time>
					</trkpt>
					<trkpt lat="46.499050" lon="5.390680">
						<ele>281</ele>
						<time>2020-04-22T13:29:46Z</time>
					</trkpt>
					<trkpt lat="46.498880" lon="5.390500">
						<ele>280</ele>
						<time>2020-04-22T13:30:14Z</time>
					</trkpt>
					<trkpt lat="46.498500" lon="5.390150">
						<ele>279</ele>
						<time>2020-04-22T13:31:14Z</time>
					</trkpt>
					<trkpt lat="46.498410" lon="5.390000">
						<ele>279</ele>
						<time>2020-04-22T13:31:32Z</time>
					</trkpt>
					<trkpt lat="46.498360" lon="5.389850">
						<ele>279</ele>
						<time>2020-04-22T13:31:47Z</time>
					</trkpt>
					<trkpt lat="46.498290" lon="5.389410">
						<ele>279</ele>
						<time>2020-04-22T13:32:29Z</time>
					</trkpt>
					<trkpt lat="46.497890" lon="5.389220">
						<ele>278</ele>
						<time>2020-04-22T13:33:25Z</time>
					</trkpt>
					<trkpt lat="46.497400" lon="5.390970">
						<ele>280</ele>
						<time>2020-04-22T13:36:19Z</time>
					</trkpt>
					<trkpt lat="46.497350" lon="5.391150">
						<ele>281</ele>
						<time>2020-04-22T13:36:37Z</time>
					</trkpt>
					<trkpt lat="46.497280" lon="5.391210">
						<ele>281</ele>
						<time>2020-04-22T13:36:47Z</time>
					</trkpt>
					<trkpt lat="46.496980" lon="5.391290">
						<ele>282</ele>
						<time>2020-04-22T13:37:28Z</time>
					</trkpt>
					<trkpt lat="46.496890" lon="5.391280">
						<ele>283</ele>
						<time>2020-04-22T13:37:40Z</time>
					</trkpt>
					<trkpt lat="46.496330" lon="5.391030">
						<ele>284</ele>
						<time>2020-04-22T13:38:58Z</time>
					</trkpt>
					<trkpt lat="46.496140" lon="5.391000">
						<ele>285</ele>
						<time>2020-04-22T13:39:24Z</time>
					</trkpt>
					<trkpt lat="46.496130" lon="5.391150">
						<ele>285</ele>
						<time>2020-04-22T13:39:38Z</time>
					</trkpt>
					<trkpt lat="46.496110" lon="5.391200">
						<ele>286</ele>
						<time>2020-04-22T13:39:43Z</time>
					</trkpt>
					<trkpt lat="46.496030" lon="5.391190">
						<ele>286</ele>
						<time>2020-04-22T13:39:54Z</time>
					</trkpt>
					<trkpt lat="46.495920" lon="5.391130">
						<ele>286</ele>
						<time>2020-04-22T13:40:09Z</time>
					</trkpt>
					<trkpt lat="46.495290" lon="5.390910">
						<ele>287</ele>
						<time>2020-04-22T13:41:36Z</time>
					</trkpt>
					<trkpt lat="46.495230" lon="5.390920">
						<ele>287</ele>
						<time>2020-04-22T13:41:44Z</time>
					</trkpt>
					<trkpt lat="46.495070" lon="5.390850">
						<ele>287</ele>
						<time>2020-04-22T13:42:06Z</time>
					</trkpt>
					<trkpt lat="46.495060" lon="5.390660">
						<ele>286</ele>
						<time>2020-04-22T13:42:24Z</time>
					</trkpt>
					<trkpt lat="46.494760" lon="5.390370">
						<ele>286</ele>
						<time>2020-04-22T13:43:12Z</time>
					</trkpt>
					<trkpt lat="46.494720" lon="5.390240">
						<ele>286</ele>
						<time>2020-04-22T13:43:25Z</time>
					</trkpt>
					<trkpt lat="46.494660" lon="5.389620">
						<ele>285</ele>
						<time>2020-04-22T13:44:22Z</time>
					</trkpt>
					<trkpt lat="46.494660" lon="5.389400">
						<ele>284</ele>
						<time>2020-04-22T13:44:43Z</time>
					</trkpt>
					<trkpt lat="46.494520" lon="5.389390">
						<ele>285</ele>
						<time>2020-04-22T13:45:01Z</time>
					</trkpt>
					<trkpt lat="46.494430" lon="5.388840">
						<ele>284</ele>
						<time>2020-04-22T13:45:53Z</time>
					</trkpt>
					<trkpt lat="46.494440" lon="5.388440">
						<ele>283</ele>
						<time>2020-04-22T13:46:30Z</time>
					</trkpt>
					<trkpt lat="46.494480" lon="5.387750">
						<ele>280</ele>
						<time>2020-04-22T13:47:34Z</time>
					</trkpt>
					<trkpt lat="46.494110" lon="5.387720">
						<ele>280</ele>
						<time>2020-04-22T13:48:23Z</time>
					</trkpt>
					</trkseg>
				</trk>
			</gpx>